createdAt,value
2022-08-18T00:00:03.419Z,29.52
2022-08-18T00:02:38.172Z,27.23
2022-08-18T00:05:09.239Z,24.98
2022-08-18T00:07:46.957Z,32.30
2022-08-18T00:10:18.615Z,27.05
2022-08-18T00:12:56.221Z,28.60
2022-08-18T00:15:26.460Z,41.88
2022-08-18T00:18:00.091Z,40.75
2022-08-18T00:20:27.367Z,48.63
2022-08-18T00:22:56.594Z,45.65
2022-08-18T00:25:31.094Z,47.00
2022-08-18T00:27:58.383Z,44.75
2022-08-18T00:30:25.535Z,52.33
2022-08-18T00:33:01.186Z,59.60
2022-08-18T00:35:30.377Z,60.88
2022-08-18T00:37:59.325Z,73.25
2022-08-18T00:40:38.153Z,75.60
2022-08-18T00:43:06.647Z,76.72
2022-08-18T00:45:43.098Z,79.15
2022-08-18T00:48:11.098Z,82.40
2022-08-18T00:51:03.112Z,77.70
2022-08-18T00:53:35.510Z,78.63
2022-08-18T00:56:17.126Z,76.10
2022-08-18T00:58:49.455Z,85.82
2022-08-18T01:01:24.153Z,89.45
2022-08-18T01:03:54.732Z,92.35
2022-08-18T01:06:34.111Z,98.25
2022-08-18T01:09:02.379Z,79.78
2022-08-18T01:11:29.895Z,90.95
2022-08-18T01:16:55.330Z,73.53
2022-08-18T01:19:51.177Z,89.15
2022-08-18T01:22:30.095Z,84.30
2022-08-18T01:25:31.204Z,86.05
2022-08-18T01:28:05.068Z,91.22
2022-08-18T01:30:40.093Z,107.88
2022-08-18T01:33:12.375Z,88.25
2022-08-18T01:35:48.102Z,75.18
2022-08-18T01:38:15.711Z,79.03
2022-08-18T01:43:37.096Z,80.15
2022-08-18T01:46:04.800Z,79.97
2022-08-18T01:48:35.354Z,85.50
2022-08-18T01:51:11.117Z,82.80
2022-08-18T01:53:38.397Z,81.47
2022-08-18T01:56:06.072Z,58.78
2022-08-18T02:01:07.340Z,76.70
2022-08-18T02:03:38.552Z,87.13
2022-08-18T02:06:14.848Z,80.18
2022-08-18T02:08:43.598Z,80.28
2022-08-18T02:11:13.940Z,74.10
2022-08-18T02:16:16.859Z,70.88
2022-08-18T02:18:48.237Z,66.57
2022-08-18T02:21:24.134Z,70.38
2022-08-18T02:23:53.783Z,55.67
2022-08-18T02:26:34.216Z,55.80
2022-08-18T02:29:01.498Z,57.45
2022-08-18T02:31:28.735Z,54.90
2022-08-18T02:34:04.107Z,65.20
2022-08-18T02:36:31.349Z,66.55
2022-08-18T02:38:59.896Z,73.45
2022-08-18T02:41:35.161Z,88.18
2022-08-18T02:44:02.448Z,71.78
2022-08-18T02:46:31.071Z,83.20
2022-08-18T02:49:05.154Z,70.75
2022-08-18T02:51:32.381Z,96.75
2022-08-18T02:53:59.740Z,78.32
2022-08-18T02:59:10.846Z,68.30
2022-08-18T03:01:46.319Z,68.45
2022-08-18T03:04:15.434Z,75.47
2022-08-18T03:06:43.208Z,67.30
2022-08-18T03:09:18.214Z,55.08
2022-08-18T03:11:45.884Z,65.63
2022-08-18T03:14:13.811Z,78.25
2022-08-18T03:16:54.441Z,70.13
2022-08-18T03:19:28.218Z,69.80
2022-08-18T03:22:02.819Z,76.68
2022-08-18T03:24:32.428Z,112.28
2022-08-18T03:27:14.237Z,113.35
2022-08-18T03:29:41.452Z,128.27
2022-08-18T03:32:08.718Z,125.65
2022-08-18T03:34:42.144Z,149.63
2022-08-18T03:37:09.465Z,168.70
2022-08-18T03:39:36.792Z,142.73
2022-08-18T03:42:11.174Z,263.35
2022-08-18T03:44:38.511Z,203.77
2022-08-18T03:47:09.771Z,181.50
2022-08-18T03:49:44.310Z,176.40
2022-08-18T03:52:11.789Z,343.20
2022-08-18T03:54:39.174Z,226.07
2022-08-18T04:00:00.901Z,201.00
2022-08-18T04:02:36.120Z,198.57
2022-08-18T04:05:05.395Z,135.00
2022-08-18T04:07:32.841Z,112.50
2022-08-18T04:10:06.251Z,131.00
2022-08-18T04:12:43.540Z,109.60
2022-08-18T04:15:17.273Z,97.40
2022-08-18T04:18:03.603Z,72.38
2022-08-18T04:20:59.143Z,75.38
2022-08-18T04:23:27.278Z,170.13
2022-08-18T04:26:08.265Z,117.38
2022-08-18T04:28:42.470Z,87.00
2022-08-18T04:31:18.204Z,157.77
2022-08-18T04:33:45.435Z,263.77
2022-08-18T04:36:20.552Z,213.93
2022-08-18T04:38:56.535Z,98.03
2022-08-18T04:41:27.597Z,93.00
2022-08-18T04:44:02.333Z,102.53
2022-08-18T04:46:30.067Z,104.43
2022-08-18T04:48:59.352Z,99.40
2022-08-18T04:52:34.464Z,101.55
2022-08-18T04:54:24.902Z,80.10
2022-08-18T04:56:58.224Z,83.65
2022-08-18T04:59:25.433Z,97.47
2022-08-18T05:01:52.616Z,91.70
2022-08-18T05:04:26.189Z,98.57
2022-08-18T05:06:53.467Z,107.80
2022-08-18T05:09:23.008Z,86.90
2022-08-18T05:11:58.213Z,101.35
2022-08-18T05:14:25.495Z,100.65
2022-08-18T05:16:53.061Z,88.25
2022-08-18T05:19:33.432Z,100.43
2022-08-18T05:22:02.822Z,90.47
2022-08-18T05:24:40.281Z,94.93
2022-08-18T05:27:14.297Z,85.13
2022-08-18T05:29:51.467Z,88.80
2022-08-18T05:32:46.357Z,84.47
2022-08-18T05:35:21.301Z,74.97
2022-08-18T05:37:58.038Z,73.63
2022-08-18T05:40:39.515Z,73.53
2022-08-18T05:43:07.878Z,68.97
2022-08-18T05:45:35.626Z,74.57
2022-08-18T05:48:09.443Z,69.47
2022-08-18T05:50:38.276Z,70.95
2022-08-18T05:53:17.358Z,63.15
2022-08-18T05:56:13.703Z,61.83
2022-08-18T05:58:50.322Z,53.35
2022-08-18T06:01:23.513Z,55.78
2022-08-18T06:04:04.709Z,54.20
2022-08-18T06:06:32.754Z,61.80
2022-08-18T06:09:12.238Z,47.75
2022-08-18T06:11:39.851Z,47.35
2022-08-18T06:14:07.042Z,43.35
2022-08-18T06:16:44.542Z,44.30
2022-08-18T06:19:39.062Z,41.03
2022-08-18T06:22:34.264Z,37.13
2022-08-18T06:25:11.201Z,39.30
2022-08-18T06:28:10.276Z,36.55
2022-08-18T06:30:43.469Z,35.83
2022-08-18T06:33:20.248Z,34.63
2022-08-18T06:36:02.768Z,31.70
2022-08-18T06:38:46.422Z,32.88
2022-08-18T06:41:43.207Z,37.17
2022-08-18T06:44:19.479Z,36.58
2022-08-18T06:46:50.074Z,35.60
2022-08-18T06:49:41.244Z,37.05
2022-08-18T06:52:21.912Z,33.00
2022-08-18T06:54:56.244Z,35.80
2022-08-18T06:57:31.288Z,35.80
2022-08-18T07:00:11.354Z,37.35
2022-08-18T07:02:41.728Z,33.85
2022-08-18T07:05:27.233Z,31.17
2022-08-18T07:08:20.480Z,35.83
2022-08-18T07:10:55.389Z,34.13
2022-08-18T07:13:26.507Z,31.92
2022-08-18T07:16:04.282Z,28.27
2022-08-18T07:18:32.764Z,31.35
2022-08-18T07:21:03.386Z,28.63
2022-08-18T07:23:57.548Z,29.98
2022-08-18T07:27:00.231Z,29.90
2022-08-18T07:29:44.249Z,33.53
2022-08-18T07:32:21.107Z,25.73
2022-08-18T07:34:59.439Z,29.83
2022-08-18T07:37:40.924Z,25.33
2022-08-18T07:40:22.280Z,23.00
2022-08-18T07:43:12.461Z,28.40
2022-08-18T07:45:51.289Z,22.05
2022-08-18T07:48:37.483Z,25.55
2022-08-18T07:51:37.345Z,27.83
2022-08-18T07:54:04.793Z,27.75
2022-08-18T07:56:49.481Z,22.80
2022-08-18T07:59:23.848Z,25.50
2022-08-18T08:02:02.426Z,23.55
2022-08-18T08:04:37.971Z,24.65
2022-08-18T08:07:28.468Z,27.50
2022-08-18T08:10:13.905Z,26.90
2022-08-18T08:13:10.003Z,23.77
2022-08-18T08:15:57.421Z,27.00
2022-08-18T08:18:44.361Z,21.55
2022-08-18T08:21:15.868Z,20.27
2022-08-18T08:23:45.151Z,29.00
2022-08-18T08:26:28.315Z,23.98
2022-08-18T08:29:14.047Z,22.48
2022-08-18T08:32:17.277Z,21.98
2022-08-18T08:34:53.346Z,22.83
2022-08-18T08:37:36.626Z,22.20
2022-08-18T08:40:10.203Z,19.85
2022-08-18T08:42:51.389Z,19.23
2022-08-18T08:45:27.347Z,19.15
2022-08-18T08:48:09.596Z,18.75
2022-08-18T08:50:41.929Z,17.95
2022-08-18T08:53:20.318Z,18.45
2022-08-18T08:55:49.989Z,19.80
2022-08-18T08:58:27.369Z,20.42
2022-08-18T09:03:53.384Z,18.75
2022-08-18T09:06:33.012Z,18.75
2022-08-18T09:09:15.377Z,20.70
2022-08-18T09:12:06.100Z,18.80
2022-08-18T09:15:00.405Z,18.08
2022-08-18T09:17:49.778Z,18.00
2022-08-18T09:20:45.788Z,17.88
2022-08-18T09:23:25.414Z,18.80
2022-08-18T09:26:07.446Z,17.60
2022-08-18T09:28:56.609Z,16.40
2022-08-18T09:31:31.820Z,18.65
2022-08-18T09:34:10.559Z,21.58
2022-08-18T09:37:03.438Z,16.23
2022-08-18T09:40:10.995Z,21.08
2022-08-18T09:42:50.482Z,16.52
2022-08-18T09:45:34.178Z,14.60
2022-08-18T09:48:20.708Z,14.98
2022-08-18T09:50:54.398Z,14.25
2022-08-18T09:53:40.561Z,13.65
2022-08-18T09:56:08.194Z,13.32
2022-08-18T09:59:02.973Z,17.23
2022-08-18T10:01:40.119Z,13.13
2022-08-18T10:04:28.924Z,12.68
2022-08-18T10:07:14.668Z,13.85
2022-08-18T10:10:12.971Z,13.60
2022-08-18T10:13:00.532Z,14.05
2022-08-18T10:15:38.412Z,14.77
2022-08-18T10:18:14.822Z,15.32
2022-08-18T10:20:49.453Z,13.67
2022-08-18T10:23:38.468Z,18.58
2022-08-18T10:29:52.355Z,11.38
2022-08-18T10:32:30.409Z,12.05
2022-08-18T10:34:59.244Z,13.20
2022-08-18T10:37:47.377Z,15.43
2022-08-18T10:40:21.349Z,11.52
2022-08-18T10:42:55.639Z,10.77
2022-08-18T10:46:05.955Z,11.40
2022-08-18T10:48:41.374Z,11.10
2022-08-18T10:51:08.529Z,10.18
2022-08-18T10:53:54.455Z,9.57
2022-08-18T10:56:34.819Z,9.45
2022-08-18T10:59:28.507Z,9.13
2022-08-18T11:02:15.233Z,9.65
2022-08-18T11:04:58.879Z,12.00
2022-08-18T11:07:30.786Z,9.50
2022-08-18T11:10:29.097Z,12.20
2022-08-18T11:12:56.240Z,11.75
2022-08-18T11:15:57.422Z,9.02
2022-08-18T11:18:42.860Z,13.13
2022-08-18T11:21:41.868Z,9.57
2022-08-18T11:24:10.143Z,11.35
2022-08-18T11:26:59.442Z,11.00
2022-08-18T11:29:29.674Z,8.63
2022-08-18T11:32:11.975Z,13.77
2022-08-18T11:34:52.866Z,10.27
2022-08-18T11:37:49.788Z,9.98
2022-08-18T11:41:01.860Z,8.35
2022-08-18T11:43:21.356Z,8.60
2022-08-18T11:45:55.061Z,13.80
2022-08-18T11:48:39.111Z,9.32
2022-08-18T11:51:23.521Z,11.40
2022-08-18T11:53:59.767Z,8.30
2022-08-18T11:56:31.287Z,8.00
2022-08-18T11:59:16.562Z,9.88
2022-08-18T12:01:51.327Z,9.68
2022-08-18T12:04:32.510Z,8.65
2022-08-18T12:07:06.017Z,8.35
2022-08-18T12:10:17.869Z,10.90
2022-08-18T12:12:35.031Z,10.35
2022-08-18T12:15:17.665Z,7.88
2022-08-18T12:17:52.986Z,8.88
2022-08-18T12:20:28.479Z,8.32
2022-08-18T12:22:57.087Z,12.63
2022-08-18T12:25:25.547Z,7.90
2022-08-18T12:28:00.430Z,11.60
2022-08-18T12:30:34.381Z,8.13
2022-08-18T12:33:12.348Z,8.00
2022-08-18T12:38:16.442Z,8.95
2022-08-18T12:40:45.295Z,10.63
2022-08-18T12:43:12.658Z,8.10
2022-08-18T12:45:47.492Z,9.52
2022-08-18T12:48:15.026Z,10.15
2022-08-18T12:53:57.981Z,12.23
2022-08-18T12:56:30.426Z,10.52
2022-08-18T12:59:08.462Z,8.32
2022-08-18T13:01:36.684Z,8.73
2022-08-18T13:04:12.926Z,11.43
2022-08-18T13:06:59.607Z,8.70
2022-08-18T13:09:34.809Z,9.77
2022-08-18T13:12:22.428Z,8.30
2022-08-18T13:14:51.601Z,8.40
2022-08-18T13:17:30.534Z,15.98
2022-08-18T13:20:14.488Z,10.43
2022-08-18T13:22:41.839Z,8.43
2022-08-18T13:27:47.378Z,12.07
2022-08-18T13:30:30.957Z,10.80
2022-08-18T13:33:53.430Z,8.80
2022-08-18T13:35:57.813Z,13.02
2022-08-18T13:38:33.430Z,10.50
2022-08-18T13:41:05.446Z,11.50
2022-08-18T13:43:42.537Z,9.57
2022-08-18T13:46:11.359Z,9.07
2022-08-18T13:48:39.602Z,9.38
2022-08-18T13:51:20.536Z,9.32
2022-08-18T13:54:06.349Z,14.68
2022-08-18T13:56:51.263Z,10.48
2022-08-18T13:59:20.637Z,9.55
2022-08-18T14:01:55.570Z,9.30
2022-08-18T14:04:28.011Z,9.63
2022-08-18T14:07:07.236Z,9.48
2022-08-18T14:09:38.203Z,12.18
2022-08-18T14:12:16.042Z,9.40
2022-08-18T14:14:52.155Z,11.02
2022-08-18T14:17:26.470Z,11.60
2022-08-18T14:20:15.269Z,11.07
2022-08-18T14:23:22.097Z,11.52
2022-08-18T14:26:10.148Z,10.75
2022-08-18T14:28:50.401Z,13.65
2022-08-18T14:31:24.114Z,10.25
2022-08-18T14:34:03.048Z,11.07
2022-08-18T14:36:31.784Z,9.32
2022-08-18T14:39:08.584Z,11.25
2022-08-18T14:41:36.263Z,12.32
2022-08-18T14:44:11.952Z,9.40
2022-08-18T14:46:52.157Z,9.98
2022-08-18T14:49:29.191Z,10.00
2022-08-18T14:52:04.503Z,9.48
2022-08-18T14:54:38.356Z,10.60
2022-08-18T14:57:12.674Z,11.93
2022-08-18T14:59:39.885Z,10.02
2022-08-18T15:02:13.027Z,12.23
2022-08-18T15:04:53.218Z,10.23
2022-08-18T15:07:25.064Z,10.65
2022-08-18T15:10:14.812Z,11.80
2022-08-18T15:12:44.020Z,11.15
2022-08-18T15:15:19.546Z,12.60
2022-08-18T15:17:52.402Z,9.88
2022-08-18T15:20:28.800Z,11.43
2022-08-18T15:23:15.288Z,9.48
2022-08-18T15:25:51.501Z,12.52
2022-08-18T15:28:27.488Z,9.55
2022-08-18T15:33:54.997Z,9.52
2022-08-18T15:36:31.434Z,11.60
2022-08-18T15:39:04.432Z,10.70
2022-08-18T15:41:43.923Z,10.80
2022-08-18T15:44:14.344Z,12.73
2022-08-18T15:46:51.298Z,9.43
2022-08-18T15:49:21.811Z,12.10
2022-08-18T15:51:57.553Z,10.20
2022-08-18T15:54:25.361Z,11.05
2022-08-18T15:56:57.803Z,12.05
2022-08-18T15:59:34.135Z,9.85
2022-08-18T16:02:11.592Z,11.77
2022-08-18T16:04:47.831Z,10.02
2022-08-18T16:07:17.916Z,11.83
2022-08-18T16:09:59.527Z,12.10
2022-08-18T16:12:33.431Z,9.52
2022-08-18T16:15:07.707Z,13.30
2022-08-18T16:17:35.049Z,10.15
2022-08-18T16:22:44.575Z,11.77
2022-08-18T16:25:12.087Z,10.00
2022-08-18T16:27:54.542Z,8.82
2022-08-18T16:30:29.351Z,14.30
2022-08-18T16:33:04.507Z,10.48
2022-08-18T16:35:32.490Z,10.60
2022-08-18T16:38:04.358Z,10.77
2022-08-18T16:40:38.541Z,12.60
2022-08-18T16:43:07.225Z,12.52
2022-08-18T16:45:36.862Z,9.90
2022-08-18T16:48:11.828Z,11.55
2022-08-18T16:50:55.430Z,10.93
2022-08-18T16:53:40.791Z,9.63
2022-08-18T16:56:11.832Z,13.63
2022-08-18T16:59:05.455Z,12.70
2022-08-18T17:01:53.400Z,12.93
2022-08-18T17:04:29.626Z,11.65
2022-08-18T17:06:57.207Z,10.55
2022-08-18T17:09:24.648Z,15.95
2022-08-18T17:12:02.870Z,14.25
2022-08-18T17:14:30.816Z,14.00
2022-08-18T17:17:05.551Z,13.48
2022-08-18T17:19:34.329Z,20.30
2022-08-18T17:22:02.111Z,12.95
2022-08-18T17:24:36.580Z,15.40
2022-08-18T17:27:20.380Z,13.32
2022-08-18T17:30:00.615Z,18.70
2022-08-18T17:35:20.628Z,12.45
2022-08-18T17:38:13.749Z,16.08
2022-08-18T17:40:54.518Z,14.85
2022-08-18T17:43:29.128Z,14.05
2022-08-18T17:46:05.526Z,17.38
2022-08-18T17:48:40.878Z,12.38
2022-08-18T17:51:43.599Z,13.13
2022-08-18T17:54:15.420Z,13.68
2022-08-18T17:57:12.784Z,13.15
2022-08-18T17:59:52.109Z,17.80
2022-08-18T18:02:31.707Z,16.75
2022-08-18T18:04:59.857Z,16.00
2022-08-18T18:07:39.569Z,19.08
2022-08-18T18:10:09.512Z,13.68
2022-08-18T18:12:37.703Z,13.55
2022-08-18T18:15:14.551Z,17.30
2022-08-18T18:17:42.976Z,14.32
2022-08-18T18:20:23.543Z,13.75
2022-08-18T18:22:52.177Z,16.85
2022-08-18T18:25:39.794Z,20.83
2022-08-18T18:28:40.445Z,16.77
2022-08-18T18:31:31.965Z,21.65
2022-08-18T18:34:01.676Z,15.02
2022-08-18T18:36:50.615Z,16.63
2022-08-18T18:39:20.628Z,17.08
2022-08-18T18:41:48.896Z,18.17
2022-08-18T18:44:22.598Z,16.55
2022-08-18T18:47:01.138Z,19.10
2022-08-18T18:49:41.699Z,21.33
2022-08-18T18:52:25.424Z,18.45
2022-08-18T18:55:09.657Z,15.60
2022-08-18T18:57:48.398Z,15.43
2022-08-18T19:00:31.939Z,18.05
2022-08-18T19:03:05.094Z,16.02
2022-08-18T19:05:43.675Z,20.77
2022-08-18T19:08:33.156Z,20.75
2022-08-18T19:11:17.732Z,17.52
2022-08-18T19:13:49.466Z,18.38
2022-08-18T19:16:34.586Z,20.23
2022-08-18T19:19:35.903Z,18.00
2022-08-18T19:22:03.698Z,19.02
2022-08-18T19:24:34.996Z,22.20
2022-08-18T19:27:24.788Z,19.85
2022-08-18T19:29:52.691Z,22.23
2022-08-18T19:32:31.695Z,20.30
2022-08-18T19:35:01.157Z,21.42
2022-08-18T19:37:55.720Z,19.90
2022-08-18T19:40:27.887Z,23.77
2022-08-18T19:43:05.693Z,20.70
2022-08-18T19:45:59.328Z,22.40
2022-08-18T19:48:41.783Z,22.52
2022-08-18T19:51:15.661Z,25.92
2022-08-18T19:54:04.603Z,24.70
2022-08-18T19:56:37.924Z,23.42
2022-08-18T19:59:21.801Z,26.80
2022-08-18T20:01:52.505Z,26.45
2022-08-18T20:04:34.582Z,25.58
2022-08-18T20:07:11.211Z,24.85
2022-08-18T20:10:03.699Z,26.15
2022-08-18T20:12:45.357Z,28.42
2022-08-18T20:15:24.713Z,32.80
2022-08-18T20:17:54.978Z,26.85
2022-08-18T20:20:23.213Z,24.90
2022-08-18T20:23:00.878Z,26.42
2022-08-18T20:25:33.602Z,30.25
2022-08-18T20:28:23.743Z,32.20
2022-08-18T20:30:54.018Z,29.75
2022-08-18T20:33:30.655Z,29.42
2022-08-18T20:36:17.551Z,28.98
2022-08-18T20:38:53.788Z,35.30
2022-08-18T20:41:27.608Z,93.35
2022-08-18T20:44:01.651Z,24.70
2022-08-18T20:46:49.021Z,28.48
2022-08-18T20:49:42.660Z,30.20
2022-08-18T20:52:29.707Z,30.70
2022-08-18T20:55:11.625Z,32.08
2022-08-18T20:57:39.232Z,30.27
2022-08-18T21:00:22.661Z,45.78
2022-08-18T21:02:58.880Z,26.00
2022-08-18T21:05:39.652Z,32.20
2022-08-18T21:08:24.812Z,28.88
2022-08-18T21:11:03.669Z,29.52
2022-08-18T21:13:42.891Z,32.53
2022-08-18T21:16:20.980Z,31.58
2022-08-18T21:19:13.768Z,24.42
2022-08-18T21:22:04.719Z,29.35
2022-08-18T21:24:33.741Z,37.85
2022-08-18T21:27:12.726Z,28.05
2022-08-18T21:29:49.517Z,25.90
2022-08-18T21:32:31.642Z,40.67
2022-08-18T21:35:02.019Z,286.58
2022-08-18T21:37:39.662Z,143.75
2022-08-18T21:40:07.732Z,30.20
2022-08-18T21:42:35.018Z,29.83
2022-08-18T21:45:08.744Z,34.60
2022-08-18T21:47:36.363Z,31.55
2022-08-18T21:50:16.668Z,28.60
2022-08-18T21:52:53.690Z,33.00
2022-08-18T21:55:39.644Z,33.53
2022-08-18T21:58:08.661Z,32.95
2022-08-18T22:00:46.739Z,40.85
2022-08-18T22:05:57.938Z,35.90
2022-08-18T22:08:33.810Z,28.23
2022-08-18T22:11:59.377Z,45.90
2022-08-18T22:17:15.014Z,34.33
2022-08-18T22:19:48.692Z,51.20
2022-08-18T22:22:37.044Z,34.50
2022-08-18T22:25:11.771Z,41.38
2022-08-18T22:27:45.603Z,34.05
2022-08-18T22:30:26.645Z,36.00
2022-08-18T22:32:54.196Z,37.30
2022-08-18T22:35:21.806Z,36.55
2022-08-18T22:40:23.491Z,30.52
2022-08-18T22:42:50.755Z,36.67
2022-08-18T22:45:25.712Z,42.63
2022-08-18T22:47:53.104Z,38.10
2022-08-18T22:52:55.773Z,42.25
2022-08-18T22:55:24.166Z,37.55
2022-08-18T22:57:54.335Z,31.45
2022-08-18T23:00:30.663Z,24.27
2022-08-18T23:02:59.477Z,36.67
2022-08-18T23:05:26.642Z,33.42
2022-08-18T23:08:00.684Z,59.50
2022-08-18T23:10:27.968Z,46.47
2022-08-18T23:12:55.239Z,32.22
2022-08-18T23:15:45.659Z,38.92
2022-08-18T23:18:12.879Z,38.20
2022-08-18T23:20:40.973Z,54.67
2022-08-18T23:23:14.735Z,52.30
2022-08-18T23:25:41.951Z,43.70
2022-08-18T23:28:22.777Z,49.70
2022-08-18T23:30:56.995Z,77.40
2022-08-18T23:33:31.701Z,82.82
2022-08-18T23:35:58.909Z,55.80
2022-08-18T23:38:31.593Z,62.78
2022-08-18T23:41:05.671Z,92.13
2022-08-18T23:43:37.249Z,60.95
2022-08-18T23:46:04.997Z,68.30
2022-08-18T23:48:38.725Z,58.72
2022-08-18T23:51:06.460Z,63.17
2022-08-18T23:53:33.610Z,69.80
2022-08-18T23:56:07.829Z,68.00
2022-08-18T23:58:35.013Z,73.93
